sensor_id;sensor_type;location;lat;lon;timestamp;P1;durP1;ratioP1;P2;durP2;ratioP2
17943;SDS011;9097;47.028;15.444;2022-09-24T00:00:05;5.13;;;4.23;;
17943;SDS011;9097;47.028;15.444;2022-09-24T00:03:08;5.67;;;3.77;;
17943;SDS011;9097;47.028;15.444;2022-09-24T00:06:11;8.20;;;4.10;;
17943;SDS011;9097;47.028;15.444;2022-09-24T00:09:15;7.70;;;4.40;;
17943;SDS011;9097;47.028;15.444;2022-09-24T00:12:19;6.23;;;3.30;;
17943;SDS011;9097;47.028;15.444;2022-09-24T00:15:22;5.63;;;3.20;;
17943;SDS011;9097;47.028;15.444;2022-09-24T00:18:24;3.33;;;2.80;;
17943;SDS011;9097;47.028;15.444;2022-09-24T00:21:28;3.77;;;3.13;;
17943;SDS011;9097;47.028;15.444;2022-09-24T00:24:31;7.63;;;4.77;;
17943;SDS011;9097;47.028;15.444;2022-09-24T00:27:52;6.67;;;3.77;;
17943;SDS011;9097;47.028;15.444;2022-09-24T00:30:54;7.50;;;3.93;;
17943;SDS011;9097;47.028;15.444;2022-09-24T00:33:58;7.00;;;3.70;;
17943;SDS011;9097;47.028;15.444;2022-09-24T00:37:00;4.17;;;3.30;;
17943;SDS011;9097;47.028;15.444;2022-09-24T00:40:03;6.90;;;3.90;;
17943;SDS011;9097;47.028;15.444;2022-09-24T00:43:25;3.40;;;2.77;;
17943;SDS011;9097;47.028;15.444;2022-09-24T00:46:28;4.63;;;3.20;;
17943;SDS011;9097;47.028;15.444;2022-09-24T00:49:33;5.50;;;3.07;;
17943;SDS011;9097;47.028;15.444;2022-09-24T00:52:39;8.23;;;3.87;;
17943;SDS011;9097;47.028;15.444;2022-09-24T00:55:44;6.20;;;3.97;;
17943;SDS011;9097;47.028;15.444;2022-09-24T00:58:51;9.00;;;4.53;;
17943;SDS011;9097;47.028;15.444;2022-09-24T01:01:55;6.90;;;4.17;;
17943;SDS011;9097;47.028;15.444;2022-09-24T01:04:58;6.40;;;4.53;;
17943;SDS011;9097;47.028;15.444;2022-09-24T01:08:01;7.10;;;4.17;;
17943;SDS011;9097;47.028;15.444;2022-09-24T01:11:07;5.93;;;3.53;;
17943;SDS011;9097;47.028;15.444;2022-09-24T01:14:19;7.80;;;3.73;;
17943;SDS011;9097;47.028;15.444;2022-09-24T01:17:28;5.17;;;3.67;;
17943;SDS011;9097;47.028;15.444;2022-09-24T01:20:36;4.53;;;3.20;;
17943;SDS011;9097;47.028;15.444;2022-09-24T01:23:50;7.93;;;3.90;;
17943;SDS011;9097;47.028;15.444;2022-09-24T01:26:58;5.83;;;3.40;;
17943;SDS011;9097;47.028;15.444;2022-09-24T01:30:04;5.53;;;3.33;;
17943;SDS011;9097;47.028;15.444;2022-09-24T01:33:09;4.50;;;3.03;;
17943;SDS011;9097;47.028;15.444;2022-09-24T01:36:13;5.27;;;3.27;;
17943;SDS011;9097;47.028;15.444;2022-09-24T01:39:16;6.17;;;3.10;;
17943;SDS011;9097;47.028;15.444;2022-09-24T01:42:20;9.93;;;3.43;;
17943;SDS011;9097;47.028;15.444;2022-09-24T01:45:26;5.87;;;3.40;;
17943;SDS011;9097;47.028;15.444;2022-09-24T01:48:32;4.77;;;2.53;;
17943;SDS011;9097;47.028;15.444;2022-09-24T01:51:37;7.97;;;3.97;;
17943;SDS011;9097;47.028;15.444;2022-09-24T01:54:43;5.63;;;2.67;;
17943;SDS011;9097;47.028;15.444;2022-09-24T01:57:51;4.03;;;2.37;;
17943;SDS011;9097;47.028;15.444;2022-09-24T02:00:58;10.17;;;4.40;;
17943;SDS011;9097;47.028;15.444;2022-09-24T02:04:07;3.53;;;2.63;;
17943;SDS011;9097;47.028;15.444;2022-09-24T02:07:11;5.47;;;2.53;;
17943;SDS011;9097;47.028;15.444;2022-09-24T02:10:16;7.83;;;4.07;;
17943;SDS011;9097;47.028;15.444;2022-09-24T02:13:20;10.70;;;3.77;;
17943;SDS011;9097;47.028;15.444;2022-09-24T02:16:28;9.27;;;4.53;;
17943;SDS011;9097;47.028;15.444;2022-09-24T02:19:31;7.93;;;3.07;;
17943;SDS011;9097;47.028;15.444;2022-09-24T02:22:37;4.97;;;3.07;;
17943;SDS011;9097;47.028;15.444;2022-09-24T02:25:41;4.27;;;2.53;;
17943;SDS011;9097;47.028;15.444;2022-09-24T02:28:44;6.03;;;2.87;;
17943;SDS011;9097;47.028;15.444;2022-09-24T02:31:48;4.73;;;3.07;;
17943;SDS011;9097;47.028;15.444;2022-09-24T02:34:54;11.17;;;3.87;;
17943;SDS011;9097;47.028;15.444;2022-09-24T02:37:58;10.37;;;4.60;;
17943;SDS011;9097;47.028;15.444;2022-09-24T02:41:04;14.43;;;4.37;;
17943;SDS011;9097;47.028;15.444;2022-09-24T02:44:07;18.67;;;4.90;;
17943;SDS011;9097;47.028;15.444;2022-09-24T02:47:11;8.60;;;4.27;;
17943;SDS011;9097;47.028;15.444;2022-09-24T02:50:14;4.70;;;3.20;;
17943;SDS011;9097;47.028;15.444;2022-09-24T02:53:17;6.57;;;3.40;;
17943;SDS011;9097;47.028;15.444;2022-09-24T02:56:19;5.93;;;3.10;;
17943;SDS011;9097;47.028;15.444;2022-09-24T02:59:22;6.33;;;3.57;;
17943;SDS011;9097;47.028;15.444;2022-09-24T03:02:26;11.60;;;3.67;;
17943;SDS011;9097;47.028;15.444;2022-09-24T03:05:28;8.50;;;3.90;;
17943;SDS011;9097;47.028;15.444;2022-09-24T03:08:31;5.77;;;3.07;;
17943;SDS011;9097;47.028;15.444;2022-09-24T03:11:34;5.87;;;3.07;;
17943;SDS011;9097;47.028;15.444;2022-09-24T03:14:37;7.10;;;3.13;;
17943;SDS011;9097;47.028;15.444;2022-09-24T03:17:41;9.23;;;2.83;;
17943;SDS011;9097;47.028;15.444;2022-09-24T03:20:52;8.03;;;2.63;;
17943;SDS011;9097;47.028;15.444;2022-09-24T03:23:55;5.70;;;3.43;;
17943;SDS011;9097;47.028;15.444;2022-09-24T03:26:59;7.73;;;2.67;;
17943;SDS011;9097;47.028;15.444;2022-09-24T03:30:02;5.97;;;3.50;;
17943;SDS011;9097;47.028;15.444;2022-09-24T03:33:23;4.33;;;2.33;;
17943;SDS011;9097;47.028;15.444;2022-09-24T03:36:26;3.93;;;2.10;;
17943;SDS011;9097;47.028;15.444;2022-09-24T03:39:29;5.80;;;3.00;;
17943;SDS011;9097;47.028;15.444;2022-09-24T03:42:31;6.83;;;3.17;;
17943;SDS011;9097;47.028;15.444;2022-09-24T03:45:34;4.10;;;2.70;;
17943;SDS011;9097;47.028;15.444;2022-09-24T03:48:39;3.53;;;2.57;;
17943;SDS011;9097;47.028;15.444;2022-09-24T03:51:42;5.83;;;3.33;;
17943;SDS011;9097;47.028;15.444;2022-09-24T03:54:45;9.60;;;3.67;;
17943;SDS011;9097;47.028;15.444;2022-09-24T03:57:47;4.83;;;2.70;;
17943;SDS011;9097;47.028;15.444;2022-09-24T04:00:50;3.43;;;1.90;;
17943;SDS011;9097;47.028;15.444;2022-09-24T04:03:54;4.83;;;2.50;;
17943;SDS011;9097;47.028;15.444;2022-09-24T04:06:57;5.67;;;2.73;;
17943;SDS011;9097;47.028;15.444;2022-09-24T04:10:00;6.43;;;2.70;;
17943;SDS011;9097;47.028;15.444;2022-09-24T04:13:02;3.50;;;2.00;;
17943;SDS011;9097;47.028;15.444;2022-09-24T04:16:05;2.77;;;2.43;;
17943;SDS011;9097;47.028;15.444;2022-09-24T04:19:09;7.17;;;3.30;;
17943;SDS011;9097;47.028;15.444;2022-09-24T04:22:12;3.93;;;3.23;;
17943;SDS011;9097;47.028;15.444;2022-09-24T04:25:15;2.77;;;1.90;;
17943;SDS011;9097;47.028;15.444;2022-09-24T04:28:18;4.10;;;2.53;;
17943;SDS011;9097;47.028;15.444;2022-09-24T04:31:20;4.23;;;2.30;;
17943;SDS011;9097;47.028;15.444;2022-09-24T04:34:24;2.90;;;2.23;;
17943;SDS011;9097;47.028;15.444;2022-09-24T04:37:27;5.07;;;2.03;;
17943;SDS011;9097;47.028;15.444;2022-09-24T04:40:29;4.37;;;2.50;;
17943;SDS011;9097;47.028;15.444;2022-09-24T04:43:32;4.23;;;2.37;;
17943;SDS011;9097;47.028;15.444;2022-09-24T04:46:36;4.53;;;2.83;;
17943;SDS011;9097;47.028;15.444;2022-09-24T04:49:41;3.37;;;1.87;;
17943;SDS011;9097;47.028;15.444;2022-09-24T04:52:45;3.00;;;2.10;;
17943;SDS011;9097;47.028;15.444;2022-09-24T04:55:47;2.87;;;1.80;;
17943;SDS011;9097;47.028;15.444;2022-09-24T04:58:50;3.57;;;2.23;;
17943;SDS011;9097;47.028;15.444;2022-09-24T05:01:53;4.20;;;2.53;;
17943;SDS011;9097;47.028;15.444;2022-09-24T05:04:57;3.10;;;2.17;;
17943;SDS011;9097;47.028;15.444;2022-09-24T05:08:00;3.40;;;2.10;;
17943;SDS011;9097;47.028;15.444;2022-09-24T05:11:04;5.67;;;2.67;;
17943;SDS011;9097;47.028;15.444;2022-09-24T05:14:06;7.63;;;2.73;;
17943;SDS011;9097;47.028;15.444;2022-09-24T05:17:09;3.37;;;1.70;;
17943;SDS011;9097;47.028;15.444;2022-09-24T05:20:15;2.20;;;1.83;;
17943;SDS011;9097;47.028;15.444;2022-09-24T05:23:18;2.17;;;1.80;;
17943;SDS011;9097;47.028;15.444;2022-09-24T05:26:21;4.23;;;2.07;;
17943;SDS011;9097;47.028;15.444;2022-09-24T05:29:42;3.70;;;2.23;;
17943;SDS011;9097;47.028;15.444;2022-09-24T05:32:44;3.03;;;2.03;;
17943;SDS011;9097;47.028;15.444;2022-09-24T05:35:53;3.50;;;2.57;;
17943;SDS011;9097;47.028;15.444;2022-09-24T05:38:56;2.10;;;1.73;;
17943;SDS011;9097;47.028;15.444;2022-09-24T05:41:59;3.90;;;2.23;;
17943;SDS011;9097;47.028;15.444;2022-09-24T05:45:03;4.47;;;2.60;;
17943;SDS011;9097;47.028;15.444;2022-09-24T05:48:06;3.53;;;2.20;;
17943;SDS011;9097;47.028;15.444;2022-09-24T05:51:10;4.20;;;2.30;;
17943;SDS011;9097;47.028;15.444;2022-09-24T05:54:13;4.63;;;2.93;;
17943;SDS011;9097;47.028;15.444;2022-09-24T05:57:15;4.70;;;2.93;;
17943;SDS011;9097;47.028;15.444;2022-09-24T06:00:18;7.30;;;2.87;;
17943;SDS011;9097;47.028;15.444;2022-09-24T06:03:21;3.70;;;2.63;;
17943;SDS011;9097;47.028;15.444;2022-09-24T06:06:25;3.20;;;2.40;;
17943;SDS011;9097;47.028;15.444;2022-09-24T06:09:28;4.30;;;3.00;;
17943;SDS011;9097;47.028;15.444;2022-09-24T06:12:31;3.63;;;2.90;;
17943;SDS011;9097;47.028;15.444;2022-09-24T06:15:34;5.17;;;3.00;;
17943;SDS011;9097;47.028;15.444;2022-09-24T06:18:41;4.60;;;2.97;;
17943;SDS011;9097;47.028;15.444;2022-09-24T06:21:45;2.93;;;2.33;;
17943;SDS011;9097;47.028;15.444;2022-09-24T06:24:48;3.93;;;2.33;;
17943;SDS011;9097;47.028;15.444;2022-09-24T06:27:54;4.50;;;2.77;;
17943;SDS011;9097;47.028;15.444;2022-09-24T06:30:59;5.93;;;3.40;;
17943;SDS011;9097;47.028;15.444;2022-09-24T06:34:02;3.50;;;2.33;;
17943;SDS011;9097;47.028;15.444;2022-09-24T06:37:06;6.43;;;3.07;;
17943;SDS011;9097;47.028;15.444;2022-09-24T06:40:09;4.43;;;2.63;;
17943;SDS011;9097;47.028;15.444;2022-09-24T06:43:11;5.40;;;2.93;;
17943;SDS011;9097;47.028;15.444;2022-09-24T06:46:15;4.00;;;2.80;;
17943;SDS011;9097;47.028;15.444;2022-09-24T06:49:18;4.63;;;2.50;;
17943;SDS011;9097;47.028;15.444;2022-09-24T06:52:24;3.57;;;2.80;;
17943;SDS011;9097;47.028;15.444;2022-09-24T06:55:26;7.90;;;3.20;;
17943;SDS011;9097;47.028;15.444;2022-09-24T06:58:31;3.60;;;2.37;;
17943;SDS011;9097;47.028;15.444;2022-09-24T07:01:35;6.13;;;3.07;;
17943;SDS011;9097;47.028;15.444;2022-09-24T07:04:37;3.93;;;3.10;;
17943;SDS011;9097;47.028;15.444;2022-09-24T07:07:45;4.97;;;3.10;;
17943;SDS011;9097;47.028;15.444;2022-09-24T07:10:54;4.33;;;2.83;;
17943;SDS011;9097;47.028;15.444;2022-09-24T07:13:57;4.20;;;3.30;;
17943;SDS011;9097;47.028;15.444;2022-09-24T07:16:59;4.23;;;2.97;;
17943;SDS011;9097;47.028;15.444;2022-09-24T07:20:02;3.53;;;2.87;;
17943;SDS011;9097;47.028;15.444;2022-09-24T07:23:06;6.37;;;2.60;;
17943;SDS011;9097;47.028;15.444;2022-09-24T07:26:09;6.60;;;3.40;;
17943;SDS011;9097;47.028;15.444;2022-09-24T07:29:13;4.60;;;3.13;;
17943;SDS011;9097;47.028;15.444;2022-09-24T07:32:15;6.83;;;2.90;;
17943;SDS011;9097;47.028;15.444;2022-09-24T07:35:18;4.67;;;3.10;;
17943;SDS011;9097;47.028;15.444;2022-09-24T07:38:22;5.07;;;2.67;;
17943;SDS011;9097;47.028;15.444;2022-09-24T07:41:39;4.50;;;3.07;;
17943;SDS011;9097;47.028;15.444;2022-09-24T07:44:41;4.40;;;3.10;;
17943;SDS011;9097;47.028;15.444;2022-09-24T07:47:44;3.77;;;2.40;;
17943;SDS011;9097;47.028;15.444;2022-09-24T07:50:47;7.03;;;3.27;;
17943;SDS011;9097;47.028;15.444;2022-09-24T07:53:51;4.00;;;2.57;;
17943;SDS011;9097;47.028;15.444;2022-09-24T07:56:54;4.60;;;2.70;;
17943;SDS011;9097;47.028;15.444;2022-09-24T07:59:57;4.60;;;2.97;;
17943;SDS011;9097;47.028;15.444;2022-09-24T08:03:00;4.30;;;2.23;;
17943;SDS011;9097;47.028;15.444;2022-09-24T08:06:04;4.93;;;2.60;;
17943;SDS011;9097;47.028;15.444;2022-09-24T08:09:08;3.93;;;2.37;;
17943;SDS011;9097;47.028;15.444;2022-09-24T08:12:11;5.63;;;2.87;;
17943;SDS011;9097;47.028;15.444;2022-09-24T08:15:13;4.50;;;2.97;;
17943;SDS011;9097;47.028;15.444;2022-09-24T08:18:15;3.30;;;2.60;;
17943;SDS011;9097;47.028;15.444;2022-09-24T08:21:18;4.97;;;2.83;;
17943;SDS011;9097;47.028;15.444;2022-09-24T08:24:22;3.63;;;2.07;;
17943;SDS011;9097;47.028;15.444;2022-09-24T08:27:25;3.33;;;2.67;;
17943;SDS011;9097;47.028;15.444;2022-09-24T08:30:29;5.13;;;2.93;;
17943;SDS011;9097;47.028;15.444;2022-09-24T08:33:32;3.47;;;2.50;;
17943;SDS011;9097;47.028;15.444;2022-09-24T08:36:34;5.67;;;2.10;;
17943;SDS011;9097;47.028;15.444;2022-09-24T08:39:38;5.20;;;2.93;;
17943;SDS011;9097;47.028;15.444;2022-09-24T08:42:42;3.70;;;2.40;;
17943;SDS011;9097;47.028;15.444;2022-09-24T08:45:51;5.40;;;2.80;;
17943;SDS011;9097;47.028;15.444;2022-09-24T08:49:13;3.17;;;2.03;;
17943;SDS011;9097;47.028;15.444;2022-09-24T08:52:19;3.80;;;2.20;;
17943;SDS011;9097;47.028;15.444;2022-09-24T08:55:36;4.93;;;2.63;;
17943;SDS011;9097;47.028;15.444;2022-09-24T08:59:13;6.13;;;2.20;;
17943;SDS011;9097;47.028;15.444;2022-09-24T09:02:20;2.70;;;1.90;;
17943;SDS011;9097;47.028;15.444;2022-09-24T09:05:31;3.23;;;2.33;;
17943;SDS011;9097;47.028;15.444;2022-09-24T09:08:42;3.00;;;2.13;;
17943;SDS011;9097;47.028;15.444;2022-09-24T09:11:56;3.03;;;1.77;;
17943;SDS011;9097;47.028;15.444;2022-09-24T09:15:02;2.83;;;1.77;;
17943;SDS011;9097;47.028;15.444;2022-09-24T09:18:09;3.60;;;2.10;;
17943;SDS011;9097;47.028;15.444;2022-09-24T09:21:16;3.45;;;2.15;;
17943;SDS011;9097;47.028;15.444;2022-09-24T09:24:20;2.92;;;2.28;;
17943;SDS011;9097;47.028;15.444;2022-09-24T09:27:25;3.17;;;2.17;;
17943;SDS011;9097;47.028;15.444;2022-09-24T09:30:30;3.55;;;2.58;;
17943;SDS011;9097;47.028;15.444;2022-09-24T09:33:41;2.80;;;1.90;;
17943;SDS011;9097;47.028;15.444;2022-09-24T09:36:49;3.50;;;2.05;;
17943;SDS011;9097;47.028;15.444;2022-09-24T09:39:58;3.05;;;2.00;;
17943;SDS011;9097;47.028;15.444;2022-09-24T09:43:07;4.78;;;2.17;;
17943;SDS011;9097;47.028;15.444;2022-09-24T09:46:11;2.50;;;1.83;;
17943;SDS011;9097;47.028;15.444;2022-09-24T09:49:16;2.80;;;2.47;;
17943;SDS011;9097;47.028;15.444;2022-09-24T09:52:20;2.10;;;1.85;;
17943;SDS011;9097;47.028;15.444;2022-09-24T09:55:26;3.35;;;2.35;;
17943;SDS011;9097;47.028;15.444;2022-09-24T09:58:31;4.60;;;2.50;;
17943;SDS011;9097;47.028;15.444;2022-09-24T10:01:35;2.90;;;2.20;;
17943;SDS011;9097;47.028;15.444;2022-09-24T10:04:42;3.60;;;2.50;;
17943;SDS011;9097;47.028;15.444;2022-09-24T10:07:51;3.03;;;2.25;;
17943;SDS011;9097;47.028;15.444;2022-09-24T10:10:56;3.50;;;1.80;;
17943;SDS011;9097;47.028;15.444;2022-09-24T10:14:04;2.13;;;1.55;;
17943;SDS011;9097;47.028;15.444;2022-09-24T10:17:09;2.40;;;1.55;;
17943;SDS011;9097;47.028;15.444;2022-09-24T10:20:17;3.08;;;1.80;;
17943;SDS011;9097;47.028;15.444;2022-09-24T10:23:31;5.38;;;2.08;;
17943;SDS011;9097;47.028;15.444;2022-09-24T10:26:37;3.42;;;1.73;;
17943;SDS011;9097;47.028;15.444;2022-09-24T10:29:42;3.03;;;2.35;;
17943;SDS011;9097;47.028;15.444;2022-09-24T10:33:03;2.10;;;1.52;;
17943;SDS011;9097;47.028;15.444;2022-09-24T10:36:12;2.42;;;1.77;;
17943;SDS011;9097;47.028;15.444;2022-09-24T10:39:15;2.38;;;1.60;;
17943;SDS011;9097;47.028;15.444;2022-09-24T10:42:22;2.00;;;1.42;;
17943;SDS011;9097;47.028;15.444;2022-09-24T10:45:29;2.47;;;1.38;;
17943;SDS011;9097;47.028;15.444;2022-09-24T10:48:37;1.00;;;0.90;;
17943;SDS011;9097;47.028;15.444;2022-09-24T10:51:43;4.32;;;1.45;;
17943;SDS011;9097;47.028;15.444;2022-09-24T10:54:50;3.38;;;1.58;;
17943;SDS011;9097;47.028;15.444;2022-09-24T10:58:01;2.78;;;1.70;;
17943;SDS011;9097;47.028;15.444;2022-09-24T11:01:08;2.78;;;1.88;;
17943;SDS011;9097;47.028;15.444;2022-09-24T11:04:24;2.95;;;1.27;;
17943;SDS011;9097;47.028;15.444;2022-09-24T11:07:37;1.60;;;1.05;;
17943;SDS011;9097;47.028;15.444;2022-09-24T11:10:50;1.58;;;1.20;;
17943;SDS011;9097;47.028;15.444;2022-09-24T11:13:56;1.02;;;0.98;;
17943;SDS011;9097;47.028;15.444;2022-09-24T11:17:11;1.95;;;1.30;;
17943;SDS011;9097;47.028;15.444;2022-09-24T11:20:30;2.53;;;1.65;;
17943;SDS011;9097;47.028;15.444;2022-09-24T11:23:39;2.72;;;1.42;;
17943;SDS011;9097;47.028;15.444;2022-09-24T11:26:49;1.77;;;1.20;;
17943;SDS011;9097;47.028;15.444;2022-09-24T11:29:58;2.15;;;1.42;;
17943;SDS011;9097;47.028;15.444;2022-09-24T11:33:12;1.75;;;0.82;;
17943;SDS011;9097;47.028;15.444;2022-09-24T11:36:28;3.53;;;1.08;;
17943;SDS011;9097;47.028;15.444;2022-09-24T11:39:37;1.70;;;1.10;;
17943;SDS011;9097;47.028;15.444;2022-09-24T11:42:46;0.73;;;0.73;;
17943;SDS011;9097;47.028;15.444;2022-09-24T11:45:56;1.73;;;1.35;;
17943;SDS011;9097;47.028;15.444;2022-09-24T11:49:13;1.80;;;1.25;;
17943;SDS011;9097;47.028;15.444;2022-09-24T11:52:22;2.05;;;1.40;;
17943;SDS011;9097;47.028;15.444;2022-09-24T11:55:28;1.48;;;1.30;;
17943;SDS011;9097;47.028;15.444;2022-09-24T11:58:33;1.50;;;1.23;;
17943;SDS011;9097;47.028;15.444;2022-09-24T12:01:39;2.40;;;1.48;;
17943;SDS011;9097;47.028;15.444;2022-09-24T12:04:53;2.72;;;1.73;;
17943;SDS011;9097;47.028;15.444;2022-09-24T12:07:59;1.35;;;1.17;;
17943;SDS011;9097;47.028;15.444;2022-09-24T12:11:08;1.65;;;1.40;;
17943;SDS011;9097;47.028;15.444;2022-09-24T12:14:18;2.63;;;1.35;;
17943;SDS011;9097;47.028;15.444;2022-09-24T12:17:22;1.67;;;1.38;;
17943;SDS011;9097;47.028;15.444;2022-09-24T12:20:29;1.45;;;1.35;;
17943;SDS011;9097;47.028;15.444;2022-09-24T12:23:34;3.00;;;1.52;;
17943;SDS011;9097;47.028;15.444;2022-09-24T12:26:39;1.40;;;1.10;;
17943;SDS011;9097;47.028;15.444;2022-09-24T12:29:45;1.15;;;1.05;;
17943;SDS011;9097;47.028;15.444;2022-09-24T12:33:09;1.23;;;1.13;;
17943;SDS011;9097;47.028;15.444;2022-09-24T12:36:16;1.27;;;0.77;;
17943;SDS011;9097;47.028;15.444;2022-09-24T12:39:20;2.08;;;1.40;;
17943;SDS011;9097;47.028;15.444;2022-09-24T12:42:25;2.22;;;1.83;;
17943;SDS011;9097;47.028;15.444;2022-09-24T12:45:31;1.67;;;1.42;;
17943;SDS011;9097;47.028;15.444;2022-09-24T12:48:35;1.35;;;1.25;;
17943;SDS011;9097;47.028;15.444;2022-09-24T12:51:40;2.40;;;1.42;;
17943;SDS011;9097;47.028;15.444;2022-09-24T12:54:43;1.90;;;1.27;;
17943;SDS011;9097;47.028;15.444;2022-09-24T12:57:50;1.48;;;1.15;;
17943;SDS011;9097;47.028;15.444;2022-09-24T13:01:04;1.42;;;1.25;;
17943;SDS011;9097;47.028;15.444;2022-09-24T13:04:27;1.70;;;1.38;;
17943;SDS011;9097;47.028;15.444;2022-09-24T13:07:33;4.18;;;1.40;;
17943;SDS011;9097;47.028;15.444;2022-09-24T13:10:36;1.55;;;1.33;;
17943;SDS011;9097;47.028;15.444;2022-09-24T13:13:40;1.95;;;1.27;;
17943;SDS011;9097;47.028;15.444;2022-09-24T13:16:45;1.70;;;1.60;;
17943;SDS011;9097;47.028;15.444;2022-09-24T13:19:49;1.38;;;1.25;;
17943;SDS011;9097;47.028;15.444;2022-09-24T13:22:59;2.72;;;1.35;;
17943;SDS011;9097;47.028;15.444;2022-09-24T13:26:24;2.53;;;1.83;;
17943;SDS011;9097;47.028;15.444;2022-09-24T13:29:27;3.25;;;1.95;;
17943;SDS011;9097;47.028;15.444;2022-09-24T13:32:41;2.25;;;1.75;;
17943;SDS011;9097;47.028;15.444;2022-09-24T13:35:46;1.85;;;1.35;;
17943;SDS011;9097;47.028;15.444;2022-09-24T13:38:54;2.00;;;1.48;;
17943;SDS011;9097;47.028;15.444;2022-09-24T13:41:58;3.17;;;2.05;;
17943;SDS011;9097;47.028;15.444;2022-09-24T13:45:03;1.75;;;1.23;;
17943;SDS011;9097;47.028;15.444;2022-09-24T13:48:12;1.75;;;1.42;;
17943;SDS011;9097;47.028;15.444;2022-09-24T13:51:17;2.40;;;1.58;;
17943;SDS011;9097;47.028;15.444;2022-09-24T13:54:24;2.75;;;1.55;;
17943;SDS011;9097;47.028;15.444;2022-09-24T13:57:28;1.67;;;1.42;;
17943;SDS011;9097;47.028;15.444;2022-09-24T14:00:31;1.73;;;1.45;;
17943;SDS011;9097;47.028;15.444;2022-09-24T14:03:34;2.47;;;1.48;;
17943;SDS011;9097;47.028;15.444;2022-09-24T14:06:38;2.13;;;1.77;;
17943;SDS011;9097;47.028;15.444;2022-09-24T14:09:43;2.72;;;2.00;;
17943;SDS011;9097;47.028;15.444;2022-09-24T14:12:57;1.65;;;1.52;;
17943;SDS011;9097;47.028;15.444;2022-09-24T14:16:06;2.78;;;1.88;;
17943;SDS011;9097;47.028;15.444;2022-09-24T14:19:12;1.60;;;1.50;;
17943;SDS011;9097;47.028;15.444;2022-09-24T14:22:15;1.77;;;1.30;;
17943;SDS011;9097;47.028;15.444;2022-09-24T14:25:23;2.65;;;2.10;;
17943;SDS011;9097;47.028;15.444;2022-09-24T14:28:28;6.28;;;2.20;;
17943;SDS011;9097;47.028;15.444;2022-09-24T14:31:32;2.75;;;1.83;;
17943;SDS011;9097;47.028;15.444;2022-09-24T14:34:43;2.28;;;2.03;;
17943;SDS011;9097;47.028;15.444;2022-09-24T14:37:46;2.20;;;1.77;;
17943;SDS011;9097;47.028;15.444;2022-09-24T14:40:52;2.15;;;1.50;;
17943;SDS011;9097;47.028;15.444;2022-09-24T14:43:57;2.88;;;1.92;;
17943;SDS011;9097;47.028;15.444;2022-09-24T14:47:00;3.42;;;2.13;;
17943;SDS011;9097;47.028;15.444;2022-09-24T14:50:03;2.78;;;1.65;;
17943;SDS011;9097;47.028;15.444;2022-09-24T14:53:27;1.52;;;1.42;;
17943;SDS011;9097;47.028;15.444;2022-09-24T14:56:33;1.85;;;1.67;;
17943;SDS011;9097;47.028;15.444;2022-09-24T14:59:36;3.42;;;1.83;;
17943;SDS011;9097;47.028;15.444;2022-09-24T15:02:40;2.00;;;1.80;;
17943;SDS011;9097;47.028;15.444;2022-09-24T15:05:43;1.88;;;1.70;;
17943;SDS011;9097;47.028;15.444;2022-09-24T15:08:58;2.88;;;1.85;;
17943;SDS011;9097;47.028;15.444;2022-09-24T15:12:07;2.80;;;1.95;;
17943;SDS011;9097;47.028;15.444;2022-09-24T15:15:24;1.65;;;1.17;;
17943;SDS011;9097;47.028;15.444;2022-09-24T15:18:27;4.20;;;2.03;;
17943;SDS011;9097;47.028;15.444;2022-09-24T15:21:29;3.03;;;1.67;;
17943;SDS011;9097;47.028;15.444;2022-09-24T15:24:32;2.25;;;1.70;;
17943;SDS011;9097;47.028;15.444;2022-09-24T15:27:38;2.13;;;1.55;;
17943;SDS011;9097;47.028;15.444;2022-09-24T15:30:41;1.90;;;1.73;;
17943;SDS011;9097;47.028;15.444;2022-09-24T15:33:44;2.95;;;1.48;;
17943;SDS011;9097;47.028;15.444;2022-09-24T15:36:47;2.83;;;1.67;;
17943;SDS011;9097;47.028;15.444;2022-09-24T15:39:50;1.80;;;1.70;;
17943;SDS011;9097;47.028;15.444;2022-09-24T15:42:54;2.03;;;1.80;;
17943;SDS011;9097;47.028;15.444;2022-09-24T15:45:57;1.30;;;1.20;;
17943;SDS011;9097;47.028;15.444;2022-09-24T15:48:59;1.77;;;1.60;;
17943;SDS011;9097;47.028;15.444;2022-09-24T15:52:05;2.20;;;1.67;;
17943;SDS011;9097;47.028;15.444;2022-09-24T15:55:10;3.15;;;1.85;;
17943;SDS011;9097;47.028;15.444;2022-09-24T15:58:15;3.40;;;2.13;;
17943;SDS011;9097;47.028;15.444;2022-09-24T16:01:18;4.68;;;1.88;;
17943;SDS011;9097;47.028;15.444;2022-09-24T16:04:20;1.85;;;1.63;;
17943;SDS011;9097;47.028;15.444;2022-09-24T16:07:23;3.30;;;2.10;;
17943;SDS011;9097;47.028;15.444;2022-09-24T16:10:25;3.33;;;2.00;;
17943;SDS011;9097;47.028;15.444;2022-09-24T16:13:29;2.25;;;1.88;;
17943;SDS011;9097;47.028;15.444;2022-09-24T16:16:32;2.67;;;1.75;;
17943;SDS011;9097;47.028;15.444;2022-09-24T16:19:36;2.65;;;1.88;;
17943;SDS011;9097;47.028;15.444;2022-09-24T16:22:38;2.60;;;1.90;;
17943;SDS011;9097;47.028;15.444;2022-09-24T16:25:48;3.53;;;2.00;;
17943;SDS011;9097;47.028;15.444;2022-09-24T16:29:00;2.70;;;1.98;;
17943;SDS011;9097;47.028;15.444;2022-09-24T16:32:04;3.33;;;1.88;;
17943;SDS011;9097;47.028;15.444;2022-09-24T16:35:07;4.60;;;1.85;;
17943;SDS011;9097;47.028;15.444;2022-09-24T16:38:11;4.65;;;1.95;;
17943;SDS011;9097;47.028;15.444;2022-09-24T16:41:14;3.08;;;2.30;;
17943;SDS011;9097;47.028;15.444;2022-09-24T16:44:20;2.15;;;1.92;;
17943;SDS011;9097;47.028;15.444;2022-09-24T16:47:22;4.35;;;2.40;;
17943;SDS011;9097;47.028;15.444;2022-09-24T16:50:26;2.38;;;1.98;;
17943;SDS011;9097;47.028;15.444;2022-09-24T16:53:28;3.28;;;2.03;;
17943;SDS011;9097;47.028;15.444;2022-09-24T16:56:32;2.47;;;2.00;;
17943;SDS011;9097;47.028;15.444;2022-09-24T16:59:38;2.25;;;2.00;;
17943;SDS011;9097;47.028;15.444;2022-09-24T17:02:40;4.78;;;2.55;;
17943;SDS011;9097;47.028;15.444;2022-09-24T17:05:43;2.67;;;2.28;;
17943;SDS011;9097;47.028;15.444;2022-09-24T17:08:46;2.95;;;2.22;;
17943;SDS011;9097;47.028;15.444;2022-09-24T17:12:06;2.47;;;2.05;;
17943;SDS011;9097;47.028;15.444;2022-09-24T17:15:12;5.38;;;2.40;;
17943;SDS011;9097;47.028;15.444;2022-09-24T17:18:15;7.03;;;3.22;;
17943;SDS011;9097;47.028;15.444;2022-09-24T17:21:18;2.72;;;2.30;;
17943;SDS011;9097;47.028;15.444;2022-09-24T17:24:21;3.22;;;2.85;;
17943;SDS011;9097;47.028;15.444;2022-09-24T17:27:24;3.88;;;2.78;;
17943;SDS011;9097;47.028;15.444;2022-09-24T17:30:28;5.60;;;2.83;;
17943;SDS011;9097;47.028;15.444;2022-09-24T17:33:31;2.78;;;2.17;;
17943;SDS011;9097;47.028;15.444;2022-09-24T17:36:34;4.63;;;2.83;;
17943;SDS011;9097;47.028;15.444;2022-09-24T17:39:37;5.07;;;2.60;;
17943;SDS011;9097;47.028;15.444;2022-09-24T17:42:40;2.95;;;2.50;;
17943;SDS011;9097;47.028;15.444;2022-09-24T17:45:55;4.18;;;2.30;;
17943;SDS011;9097;47.028;15.444;2022-09-24T17:48:59;6.22;;;2.65;;
17943;SDS011;9097;47.028;15.444;2022-09-24T17:52:02;4.55;;;3.08;;
17943;SDS011;9097;47.028;15.444;2022-09-24T17:55:05;5.68;;;3.10;;
17943;SDS011;9097;47.028;15.444;2022-09-24T17:58:08;6.72;;;3.38;;
17943;SDS011;9097;47.028;15.444;2022-09-24T18:01:12;6.65;;;3.55;;
17943;SDS011;9097;47.028;15.444;2022-09-24T18:04:17;4.50;;;3.17;;
17943;SDS011;9097;47.028;15.444;2022-09-24T18:07:19;6.93;;;4.07;;
17943;SDS011;9097;47.028;15.444;2022-09-24T18:10:24;6.78;;;3.97;;
17943;SDS011;9097;47.028;15.444;2022-09-24T18:13:26;7.88;;;4.22;;
17943;SDS011;9097;47.028;15.444;2022-09-24T18:16:35;6.20;;;4.03;;
17943;SDS011;9097;47.028;15.444;2022-09-24T18:23:06;10.43;;;4.05;;
17943;SDS011;9097;47.028;15.444;2022-09-24T18:26:10;11.25;;;5.22;;
17943;SDS011;9097;47.028;15.444;2022-09-24T18:29:15;6.85;;;4.97;;
17943;SDS011;9097;47.028;15.444;2022-09-24T18:32:20;8.45;;;4.22;;
17943;SDS011;9097;47.028;15.444;2022-09-24T18:35:24;7.60;;;4.93;;
17943;SDS011;9097;47.028;15.444;2022-09-24T18:38:27;6.20;;;4.80;;
17943;SDS011;9097;47.028;15.444;2022-09-24T18:41:31;7.67;;;4.73;;